Loading...

Robinson R22 helicopter training #18

657 views

Loading...

Loading...

Loading...

Rating is available when the video has been rented.
This feature is not available right now. Please try again later.
Published on Apr 28, 2011

Practicing traffic patterns with a few autorotations in a Robinson R22 helicopter.

Notable points of interest include engine startup at the 2:30 mark, hover taxi at 9:10, takeoff at 12:30, on the go from the numbers at 17:58.

Running landing at 23:10. Running takeoff at 23:53. Autorotation at 28:10 then again at 33:05.

121745Z 29015G25KT 20SM FEW015 SCT070 BKN100 06/M01 A3002

Loading...

When autoplay is enabled, a suggested video will automatically play next.

Up next


to add this to Watch Later

Add to

Loading playlists...